Time;durP1;ratioP1;P1;durP2;ratioP2;P2;SDS_P1;SDS_P2;PMS_P1;PMS_P2;Temp;Humidity;BMP_temperature;BMP_pressure;BME280_temperature;BME280_humidity;BME280_pressure;Samples;Min_cycle;Max_cycle;Signal;HPM_P1;HPM_P2
2022/03/30 00:00:13;;;;;;;36.57;18.23;;;4.20;99.90;;;;;;5108068;27;20050;-72
2022/03/30 00:02:38;;;;;;;35.77;19.00;;;4.20;99.90;;;;;;5094691;28;20051;-72
2022/03/30 00:05:05;;;;;;;35.10;18.80;;;4.20;99.90;;;;;;5110251;27;20465;-72
2022/03/30 00:07:32;;;;;;;42.93;20.63;;;4.20;99.90;;;;;;5076427;27;20496;-72
2022/03/30 00:09:58;;;;;;;36.83;19.87;;;4.20;99.90;;;;;;5073945;27;20484;-73
2022/03/30 00:12:25;;;;;;;40.73;18.80;;;4.30;99.90;;;;;;5090631;27;20051;-72
2022/03/30 00:14:51;;;;;;;27.67;15.90;;;4.30;99.90;;;;;;5101898;27;20069;-73
2022/03/30 00:17:17;;;;;;;26.57;15.03;;;4.40;99.90;;;;;;5111013;27;20415;-72
2022/03/30 00:19:43;;;;;;;38.07;18.87;;;4.40;99.90;;;;;;5083185;27;20047;-72
2022/03/30 00:22:09;;;;;;;34.43;18.30;;;4.40;99.90;;;;;;5104264;27;20122;-72
2022/03/30 00:24:35;;;;;;;40.23;18.97;;;4.40;99.90;;;;;;5103805;27;20584;-72
2022/03/30 00:27:02;;;;;;;37.87;19.83;;;4.50;99.90;;;;;;5100435;28;20051;-72
2022/03/30 00:29:29;;;;;;;38.17;19.43;;;4.50;99.90;;;;;;5102927;27;20051;-72
2022/03/30 00:31:55;;;;;;;38.93;18.97;;;4.50;99.90;;;;;;5104215;27;20089;-72
2022/03/30 00:34:21;;;;;;;39.97;19.97;;;4.60;99.90;;;;;;5094694;27;20042;-72
2022/03/30 00:36:46;;;;;;;33.07;18.70;;;4.60;99.90;;;;;;5103529;27;20147;-72
2022/03/30 00:39:12;;;;;;;41.10;21.30;;;4.60;99.90;;;;;;5106508;27;20055;-73
2022/03/30 00:41:38;;;;;;;40.47;19.20;;;4.60;99.90;;;;;;5107436;28;20092;-72
2022/03/30 00:44:09;;;;;;;36.27;19.80;;;4.60;99.90;;;;;;5101321;27;20674;-72
2022/03/30 00:46:36;;;;;;;29.60;16.47;;;4.60;99.90;;;;;;5108731;28;20080;-72
2022/03/30 00:49:02;;;;;;;27.13;16.20;;;4.60;99.90;;;;;;5101141;27;20131;-72
2022/03/30 00:51:28;;;;;;;30.10;15.37;;;4.60;99.90;;;;;;5113199;27;20053;-72
2022/03/30 00:53:53;;;;;;;30.13;15.43;;;4.50;99.90;;;;;;5106761;27;20043;-72
2022/03/30 00:56:19;;;;;;;28.03;16.63;;;4.50;99.90;;;;;;5087434;27;20430;-72
2022/03/30 00:58:45;;;;;;;32.23;17.47;;;4.50;99.90;;;;;;5115543;27;20761;-72
2022/03/30 01:01:11;;;;;;;31.53;17.00;;;4.50;99.90;;;;;;5083607;27;20046;-72
2022/03/30 01:03:38;;;;;;;29.87;17.33;;;4.40;99.90;;;;;;5105076;27;20043;-73
2022/03/30 01:06:04;;;;;;;28.43;16.97;;;4.40;99.90;;;;;;5097755;27;20086;-72
2022/03/30 01:08:30;;;;;;;34.33;18.30;;;4.40;99.90;;;;;;5105488;28;20079;-72
2022/03/30 01:10:56;;;;;;;37.73;18.93;;;4.40;99.90;;;;;;5102262;27;20132;-72
2022/03/30 01:13:22;;;;;;;41.60;19.27;;;4.40;99.90;;;;;;5095520;27;20473;-72
2022/03/30 01:15:49;;;;;;;28.23;17.93;;;4.40;99.90;;;;;;5107901;27;20055;-73
2022/03/30 01:18:15;;;;;;;37.93;18.40;;;4.40;99.90;;;;;;5093735;27;20564;-72
2022/03/30 01:20:49;;;;;;;35.53;18.60;;;4.30;99.90;;;;;;5108155;27;20134;-72
2022/03/30 01:23:15;;;;;;;36.00;18.00;;;4.40;99.90;;;;;;5099990;27;20147;-72
2022/03/30 01:25:41;;;;;;;36.67;18.80;;;4.40;99.90;;;;;;5104511;28;20130;-72
2022/03/30 01:28:07;;;;;;;35.00;19.43;;;4.30;99.90;;;;;;5094761;28;20420;-72
2022/03/30 01:33:17;;;;;;;40.60;19.80;;;4.30;99.90;;;;;;5103332;27;20050;-72
2022/03/30 01:35:42;;;;;;;35.70;19.57;;;4.20;99.90;;;;;;5101794;27;20054;-73
2022/03/30 01:38:09;;;;;;;28.83;17.10;;;4.20;99.90;;;;;;5104155;27;20054;-72
2022/03/30 01:40:38;;;;;;;35.53;17.37;;;4.10;99.90;;;;;;5093434;28;20138;-72
2022/03/30 01:43:04;;;;;;;30.17;17.30;;;4.10;99.90;;;;;;5106099;27;20054;-72
2022/03/30 01:45:30;;;;;;;34.60;18.90;;;4.00;99.90;;;;;;5097994;27;20092;-72
2022/03/30 01:47:58;;;;;;;33.53;18.57;;;3.90;99.90;;;;;;5101521;27;20043;-72
2022/03/30 01:50:25;;;;;;;38.97;20.20;;;4.00;99.90;;;;;;5107629;27;20039;-72
2022/03/30 01:52:51;;;;;;;35.47;18.13;;;4.00;99.90;;;;;;5095744;27;20130;-73
2022/03/30 01:55:18;;;;;;;33.43;19.30;;;4.00;99.90;;;;;;5087722;27;20043;-73
2022/03/30 01:57:45;;;;;;;46.57;21.20;;;4.00;99.90;;;;;;5105663;27;20094;-72
2022/03/30 02:00:12;;;;;;;38.90;18.73;;;4.10;99.90;;;;;;5098433;27;20512;-72
2022/03/30 02:02:38;;;;;;;40.70;21.17;;;4.10;99.90;;;;;;5109025;27;20457;-73
2022/03/30 02:05:05;;;;;;;43.73;21.57;;;4.20;99.90;;;;;;5103275;27;20074;-72
2022/03/30 02:07:31;;;;;;;47.07;23.60;;;4.20;99.90;;;;;;5111459;27;20092;-72
2022/03/30 02:09:57;;;;;;;42.13;23.37;;;4.20;99.90;;;;;;5100841;27;20046;-72
2022/03/30 02:12:24;;;;;;;50.33;24.53;;;4.20;99.90;;;;;;5097352;28;20450;-72
2022/03/30 02:14:51;;;;;;;48.07;23.37;;;4.30;99.90;;;;;;5100744;28;20123;-72
2022/03/30 02:17:18;;;;;;;47.73;24.47;;;4.40;99.90;;;;;;5096532;28;20039;-72
2022/03/30 02:19:45;;;;;;;46.37;23.30;;;4.40;99.90;;;;;;5098640;28;20063;-72
2022/03/30 02:22:10;;;;;;;46.27;23.23;;;4.40;99.90;;;;;;5100988;27;20157;-71
2022/03/30 02:24:36;;;;;;;52.10;24.37;;;4.40;99.90;;;;;;5104211;27;20563;-71
2022/03/30 02:27:02;;;;;;;51.70;26.10;;;4.40;99.90;;;;;;5112398;27;20043;-72
2022/03/30 02:29:29;;;;;;;49.43;25.20;;;4.40;99.90;;;;;;5097881;27;20401;-72
2022/03/30 02:31:55;;;;;;;49.93;25.23;;;4.50;99.90;;;;;;5092512;27;20047;-72
2022/03/30 02:34:22;;;;;;;52.47;25.00;;;4.50;99.90;;;;;;5102294;27;20066;-72
2022/03/30 02:36:48;;;;;;;46.63;23.57;;;4.60;99.90;;;;;;5095467;28;20405;-73
2022/03/30 02:39:15;;;;;;;47.00;24.40;;;4.60;99.90;;;;;;5091604;28;20040;-71
2022/03/30 02:41:41;;;;;;;47.73;24.20;;;4.70;99.90;;;;;;5104983;27;20439;-73
2022/03/30 02:44:08;;;;;;;44.20;23.70;;;4.70;99.90;;;;;;5088659;28;20039;-72
2022/03/30 02:46:35;;;;;;;42.70;23.33;;;4.80;99.90;;;;;;5105727;28;20047;-73
2022/03/30 02:49:01;;;;;;;46.03;23.63;;;4.80;99.90;;;;;;5108341;28;20050;-72
2022/03/30 02:51:29;;;;;;;43.27;23.87;;;4.80;99.90;;;;;;5102889;28;20725;-72
2022/03/30 02:53:55;;;;;;;40.40;22.27;;;4.90;99.90;;;;;;5103493;28;20059;-72
2022/03/30 02:56:21;;;;;;;45.13;22.93;;;5.00;99.90;;;;;;5102745;28;20442;-73
2022/03/30 02:58:46;;;;;;;43.27;22.50;;;5.00;99.90;;;;;;5102479;28;20050;-72
2022/03/30 03:01:12;;;;;;;42.10;23.00;;;5.00;99.90;;;;;;5109887;28;20170;-72
2022/03/30 03:03:40;;;;;;;43.43;22.13;;;5.00;99.90;;;;;;5104372;28;20055;-72
2022/03/30 03:06:06;;;;;;;39.80;22.17;;;5.10;99.90;;;;;;5103002;28;20070;-72
2022/03/30 03:08:32;;;;;;;39.23;21.57;;;5.10;99.90;;;;;;5109416;28;20139;-72
2022/03/30 03:10:58;;;;;;;41.70;22.20;;;5.20;99.90;;;;;;5101379;28;20070;-72
2022/03/30 03:13:25;;;;;;;47.17;23.87;;;5.20;99.90;;;;;;5104706;28;20051;-72
2022/03/30 03:15:51;;;;;;;46.10;24.20;;;5.20;99.90;;;;;;5099628;28;20054;-72
2022/03/30 03:18:18;;;;;;;41.13;23.97;;;5.30;99.90;;;;;;5106981;28;20126;-73
2022/03/30 03:20:47;;;;;;;43.33;21.70;;;5.30;99.90;;;;;;5110007;28;20039;-72
2022/03/30 03:23:14;;;;;;;51.70;23.40;;;5.30;99.90;;;;;;5103756;28;20505;-72
2022/03/30 03:25:41;;;;;;;43.87;22.67;;;5.30;99.90;;;;;;5100971;28;20046;-72
2022/03/30 03:28:07;;;;;;;39.97;22.87;;;5.40;99.90;;;;;;5106013;28;20601;-72
2022/03/30 03:30:33;;;;;;;44.10;22.93;;;5.40;99.90;;;;;;5110688;28;20050;-72
2022/03/30 03:32:59;;;;;;;48.10;22.93;;;5.40;99.90;;;;;;5102678;28;20126;-70
2022/03/30 03:35:26;;;;;;;44.93;22.93;;;5.40;99.90;;;;;;5107144;28;20031;-73
2022/03/30 03:37:53;;;;;;;46.87;22.73;;;5.50;99.90;;;;;;5104522;28;20052;-72
2022/03/30 03:40:19;;;;;;;45.53;24.70;;;5.40;99.90;;;;;;5105623;28;20051;-72
2022/03/30 03:42:45;;;;;;;45.83;22.63;;;5.50;99.90;;;;;;5109754;28;20047;-73
2022/03/30 03:45:12;;;;;;;46.50;22.73;;;5.50;99.90;;;;;;5126581;28;20131;-73
2022/03/30 03:47:38;;;;;;;43.23;21.83;;;5.50;99.90;;;;;;5109936;28;20051;-73
2022/03/30 03:50:04;;;;;;;41.23;22.27;;;5.50;99.90;;;;;;5112730;27;20518;-73
2022/03/30 03:52:31;;;;;;;45.57;22.57;;;5.50;99.90;;;;;;5110362;27;20529;-73
2022/03/30 03:54:58;;;;;;;45.17;22.47;;;5.50;99.90;;;;;;5114620;27;20122;-72
2022/03/30 03:57:24;;;;;;;41.67;21.87;;;5.60;99.90;;;;;;5104297;27;20146;-72
2022/03/30 03:59:51;;;;;;;41.10;21.57;;;5.60;99.90;;;;;;5094435;27;20114;-73
2022/03/30 04:02:16;;;;;;;44.30;21.90;;;5.60;99.90;;;;;;5106071;27;20100;-73
2022/03/30 04:04:44;;;;;;;40.07;21.67;;;5.60;99.90;;;;;;5106333;27;20432;-72
2022/03/30 04:07:10;;;;;;;42.60;20.93;;;5.60;99.90;;;;;;5094989;27;20062;-72
2022/03/30 04:09:36;;;;;;;39.13;21.10;;;5.60;99.90;;;;;;5091671;27;20047;-73
2022/03/30 04:12:03;;;;;;;42.90;20.87;;;5.60;99.90;;;;;;5110603;27;20500;-72
2022/03/30 04:14:29;;;;;;;44.80;21.67;;;5.60;99.90;;;;;;5112820;27;20100;-73
2022/03/30 04:16:55;;;;;;;45.53;20.83;;;5.60;99.90;;;;;;5107779;27;20462;-72
2022/03/30 04:19:21;;;;;;;43.67;21.23;;;5.70;99.90;;;;;;5103829;28;20111;-72
2022/03/30 04:21:46;;;;;;;44.47;21.50;;;5.70;99.90;;;;;;5086892;27;20138;-72
2022/03/30 04:24:12;;;;;;;40.83;21.37;;;5.70;99.90;;;;;;5103820;27;20139;-73
2022/03/30 04:26:38;;;;;;;39.60;19.03;;;5.70;99.90;;;;;;5103445;27;20178;-72
2022/03/30 04:29:06;;;;;;;44.47;20.83;;;5.70;99.90;;;;;;5107993;27;20050;-73
2022/03/30 04:31:32;;;;;;;44.87;20.10;;;5.70;99.90;;;;;;5111842;27;20047;-72
2022/03/30 04:33:58;;;;;;;42.77;20.57;;;5.70;99.90;;;;;;5087210;27;20467;-73
2022/03/30 04:36:24;;;;;;;44.87;20.00;;;5.70;99.90;;;;;;5102925;27;20054;-72
2022/03/30 04:38:50;;;;;;;38.63;19.63;;;5.70;99.90;;;;;;5097263;27;20032;-73
2022/03/30 04:41:16;;;;;;;43.23;20.37;;;5.70;99.90;;;;;;5105207;27;20413;-73
2022/03/30 04:43:41;;;;;;;44.13;19.03;;;5.70;99.90;;;;;;5105479;28;20047;-72
2022/03/30 04:46:08;;;;;;;42.83;19.60;;;5.70;99.90;;;;;;5100525;27;20074;-73
2022/03/30 04:48:34;;;;;;;38.27;19.03;;;5.80;99.90;;;;;;5105341;27;20051;-72
2022/03/30 04:51:00;;;;;;;43.77;20.23;;;5.80;99.90;;;;;;5104339;27;20046;-73
2022/03/30 04:53:26;;;;;;;41.43;18.50;;;5.80;99.90;;;;;;5110778;27;20174;-72
2022/03/30 04:55:52;;;;;;;41.00;18.30;;;5.80;99.90;;;;;;5107216;28;20087;-73
2022/03/30 04:58:18;;;;;;;40.97;19.70;;;5.80;99.90;;;;;;5107244;27;20046;-73
2022/03/30 05:00:43;;;;;;;35.63;17.30;;;5.80;99.90;;;;;;5108628;27;20096;-73
2022/03/30 05:03:11;;;;;;;39.47;17.10;;;5.90;99.90;;;;;;5104711;27;20039;-73
2022/03/30 05:05:36;;;;;;;36.90;18.47;;;5.90;99.90;;;;;;5113338;27;20055;-73
2022/03/30 05:08:03;;;;;;;38.73;18.30;;;5.90;99.90;;;;;;5100255;27;20054;-73
2022/03/30 05:10:29;;;;;;;38.23;17.00;;;5.90;99.90;;;;;;5111647;27;20454;-73
2022/03/30 05:12:55;;;;;;;34.93;16.87;;;5.90;99.90;;;;;;5097058;27;20058;-72
2022/03/30 05:15:24;;;;;;;36.20;16.20;;;5.90;99.90;;;;;;5106200;28;20043;-73
2022/03/30 05:17:50;;;;;;;37.23;16.77;;;5.90;99.90;;;;;;5102540;28;20039;-73
2022/03/30 05:20:17;;;;;;;31.60;15.73;;;5.90;99.90;;;;;;5104462;27;20121;-73
2022/03/30 05:22:44;;;;;;;34.30;16.60;;;5.90;99.90;;;;;;5102073;28;20043;-73
2022/03/30 05:25:11;;;;;;;31.43;15.00;;;5.90;99.90;;;;;;5099083;27;20980;-73
2022/03/30 05:27:37;;;;;;;32.50;14.90;;;5.90;99.90;;;;;;5089907;27;20219;-72
2022/03/30 05:30:04;;;;;;;26.17;12.23;;;5.90;99.90;;;;;;5103921;27;20052;-73
2022/03/30 05:32:30;;;;;;;21.47;11.80;;;5.90;99.90;;;;;;5100309;28;20054;-73
2022/03/30 05:34:56;;;;;;;21.17;10.97;;;5.90;99.90;;;;;;5103772;28;20126;-72
2022/03/30 05:37:26;;;;;;;19.57;9.90;;;6.00;99.90;;;;;;5103387;28;20035;-72
2022/03/30 05:39:52;;;;;;;18.30;8.80;;;6.00;99.90;;;;;;5106772;27;20043;-72
2022/03/30 05:42:20;;;;;;;10.80;6.73;;;6.00;99.90;;;;;;5105029;27;20047;-73
2022/03/30 05:44:45;;;;;;;10.70;6.00;;;6.00;99.90;;;;;;5112129;27;20035;-75
2022/03/30 05:47:11;;;;;;;8.67;5.40;;;6.00;99.90;;;;;;5116210;27;20047;-74
2022/03/30 05:49:38;;;;;;;8.63;5.10;;;6.00;99.90;;;;;;5104496;27;20046;-74
2022/03/30 05:52:05;;;;;;;6.40;4.27;;;6.00;99.90;;;;;;5109274;27;20108;-74
2022/03/30 05:54:32;;;;;;;6.83;3.83;;;6.10;99.90;;;;;;5120520;27;20046;-74
2022/03/30 05:57:00;;;;;;;4.63;3.30;;;6.10;99.90;;;;;;5089920;27;20134;-74
2022/03/30 05:59:26;;;;;;;5.73;3.87;;;6.10;99.90;;;;;;5115287;28;20040;-74
2022/03/30 06:01:52;;;;;;;5.63;3.40;;;6.20;99.90;;;;;;5107400;27;20055;-74
2022/03/30 06:04:18;;;;;;;3.97;2.80;;;6.20;99.90;;;;;;5110980;27;20047;-74
2022/03/30 06:06:43;;;;;;;4.27;3.20;;;6.20;99.90;;;;;;5113954;27;20056;-74
2022/03/30 06:09:09;;;;;;;5.83;3.03;;;6.20;99.90;;;;;;5106848;27;20035;-74
2022/03/30 06:11:37;;;;;;;5.27;3.10;;;6.30;99.90;;;;;;5102446;28;20047;-74
2022/03/30 06:14:02;;;;;;;3.43;2.80;;;6.30;99.90;;;;;;5103051;27;20040;-74
2022/03/30 06:16:29;;;;;;;4.10;3.03;;;6.30;99.90;;;;;;5106682;28;20055;-74
2022/03/30 06:18:55;;;;;;;4.90;2.60;;;6.40;99.90;;;;;;5109695;27;20035;-74
2022/03/30 06:21:21;;;;;;;3.43;2.70;;;6.40;99.90;;;;;;5104574;27;20056;-74
2022/03/30 06:23:47;;;;;;;5.07;3.30;;;6.50;99.90;;;;;;5108300;27;20043;-74
2022/03/30 06:26:13;;;;;;;4.53;2.60;;;6.50;99.90;;;;;;5112135;27;20062;-75
2022/03/30 06:28:41;;;;;;;2.70;1.87;;;6.60;99.90;;;;;;5090896;27;20085;-75
2022/03/30 06:31:06;;;;;;;3.67;1.90;;;6.60;99.90;;;;;;5109934;27;20039;-72
2022/03/30 06:33:32;;;;;;;2.73;1.90;;;6.60;99.90;;;;;;5119861;27;20568;-76
2022/03/30 06:35:58;;;;;;;2.20;1.97;;;6.60;99.90;;;;;;5106668;28;20070;-74
2022/03/30 06:38:25;;;;;;;2.63;1.80;;;6.70;99.90;;;;;;5115416;28;20104;-75
2022/03/30 06:40:50;;;;;;;1.93;1.40;;;6.70;99.90;;;;;;5113872;27;20050;-73
2022/03/30 06:43:16;;;;;;;2.20;1.30;;;6.90;99.90;;;;;;5107279;28;20118;-75
2022/03/30 06:45:46;;;;;;;1.83;1.63;;;7.00;99.90;;;;;;5127182;27;20114;-74
2022/03/30 06:48:12;;;;;;;2.07;1.43;;;7.10;99.90;;;;;;5116105;27;20043;-75
2022/03/30 06:50:37;;;;;;;2.50;1.33;;;7.10;99.90;;;;;;5112310;28;20055;-75
2022/03/30 06:53:06;;;;;;;1.40;1.30;;;7.20;99.90;;;;;;5111430;28;20103;-74
2022/03/30 06:55:31;;;;;;;2.00;1.40;;;7.30;99.90;;;;;;5107667;28;20261;-73
2022/03/30 06:57:57;;;;;;;1.90;1.70;;;7.50;99.90;;;;;;5109605;28;20138;-73
2022/03/30 07:00:23;;;;;;;1.90;1.50;;;7.60;99.90;;;;;;5112306;28;20043;-75
2022/03/30 07:02:52;;;;;;;2.00;1.50;;;7.60;99.90;;;;;;5108267;27;20053;-74
2022/03/30 07:05:18;;;;;;;2.60;1.67;;;7.70;99.90;;;;;;5112982;28;20112;-73
2022/03/30 07:10:31;;;;;;;2.00;1.75;;;7.70;99.90;;;;;;5117346;28;20047;-75
2022/03/30 07:12:57;;;;;;;2.23;2.03;;;7.80;99.90;;;;;;5113866;28;20450;-74
2022/03/30 07:15:23;;;;;;;2.47;2.13;;;7.90;99.90;;;;;;5088151;28;20054;-76
2022/03/30 07:17:51;;;;;;;3.37;1.90;;;7.90;99.90;;;;;;5109101;28;20480;-76
2022/03/30 07:20:19;;;;;;;2.30;1.90;;;8.00;99.90;;;;;;5110010;28;20519;-79
2022/03/30 07:22:47;;;;;;;2.00;1.67;;;8.00;99.90;;;;;;5095368;28;20054;-74
2022/03/30 07:25:14;;;;;;;2.37;1.90;;;8.20;99.90;;;;;;5112251;27;20449;-75
2022/03/30 07:27:41;;;;;;;1.70;1.60;;;8.30;99.90;;;;;;5115097;27;20561;-74
2022/03/30 07:30:09;;;;;;;2.17;1.57;;;8.50;99.90;;;;;;5107437;27;20064;-73
2022/03/30 07:32:35;;;;;;;1.77;1.37;;;8.60;99.90;;;;;;5111063;27;20040;-73
2022/03/30 07:35:03;;;;;;;2.30;1.50;;;8.60;99.90;;;;;;5101016;27;20099;-78
2022/03/30 07:37:29;;;;;;;2.97;1.60;;;8.70;99.90;;;;;;5105549;27;20295;-74
2022/03/30 07:39:55;;;;;;;3.93;2.40;;;8.70;99.90;;;;;;5102212;27;20118;-74
2022/03/30 07:42:20;;;;;;;2.77;2.10;;;8.70;99.90;;;;;;5123967;27;20049;-72
2022/03/30 07:44:46;;;;;;;3.23;1.70;;;8.70;99.90;;;;;;5103678;27;20043;-73
2022/03/30 07:47:12;;;;;;;3.50;2.00;;;8.70;99.90;;;;;;5104096;28;20058;-75
2022/03/30 07:49:38;;;;;;;3.77;2.07;;;8.70;99.90;;;;;;5105618;27;20055;-72
2022/03/30 07:52:05;;;;;;;4.27;2.07;;;8.70;99.90;;;;;;5104623;28;20492;-77
2022/03/30 07:54:31;;;;;;;3.97;1.97;;;8.80;99.90;;;;;;5110096;27;20292;-75
2022/03/30 07:56:57;;;;;;;3.47;1.93;;;8.80;99.90;;;;;;5112678;27;20066;-74
2022/03/30 07:59:23;;;;;;;3.80;3.17;;;8.90;99.90;;;;;;5111916;27;20050;-75
2022/03/30 08:01:49;;;;;;;4.47;3.17;;;8.80;99.90;;;;;;5132609;27;20103;-78
2022/03/30 08:04:14;;;;;;;5.13;2.40;;;8.70;99.90;;;;;;5087292;27;20561;-73
2022/03/30 08:06:40;;;;;;;4.60;2.33;;;8.80;99.90;;;;;;5117263;27;20062;-77
2022/03/30 08:09:07;;;;;;;6.60;1.90;;;8.80;99.90;;;;;;5109460;27;20040;-76
2022/03/30 08:11:33;;;;;;;6.37;3.20;;;8.80;99.90;;;;;;5105746;27;20051;-74
2022/03/30 08:13:58;;;;;;;5.50;3.63;;;8.80;99.90;;;;;;5107836;27;20053;-74
2022/03/30 08:16:25;;;;;;;5.47;3.10;;;8.70;99.90;;;;;;5092080;27;20051;-73
2022/03/30 08:18:50;;;;;;;4.63;4.10;;;8.70;99.90;;;;;;5133027;27;20404;-74
2022/03/30 08:24:02;;;;;;;6.00;3.85;;;8.80;99.90;;;;;;5110170;27;20039;-73
2022/03/30 08:26:31;;;;;;;7.43;3.97;;;8.70;99.90;;;;;;5104031;27;20042;-73
2022/03/30 08:28:57;;;;;;;6.13;3.50;;;8.70;99.90;;;;;;5110945;27;20090;-73
2022/03/30 08:31:22;;;;;;;7.20;4.73;;;8.70;99.90;;;;;;5113143;27;20520;-74
2022/03/30 08:33:48;;;;;;;6.87;3.77;;;8.70;99.90;;;;;;5107813;28;20602;-73
2022/03/30 08:36:14;;;;;;;12.23;3.53;;;8.70;99.90;;;;;;5109507;27;20047;-73
2022/03/30 08:38:40;;;;;;;6.57;2.80;;;8.80;99.90;;;;;;5102769;27;20047;-73
2022/03/30 08:41:06;;;;;;;5.47;2.93;;;8.80;99.90;;;;;;5105773;27;20505;-74
2022/03/30 08:43:34;;;;;;;4.20;2.33;;;8.90;99.90;;;;;;5102574;27;20492;-75
2022/03/30 08:46:02;;;;;;;2.97;2.30;;;9.00;99.90;;;;;;5104351;27;20058;-73
2022/03/30 08:48:28;;;;;;;6.30;2.30;;;9.30;99.90;;;;;;5105983;27;20536;-74
2022/03/30 08:50:55;;;;;;;3.43;2.10;;;9.50;99.90;;;;;;5107004;27;20142;-77
2022/03/30 08:53:24;;;;;;;6.03;2.20;;;9.70;99.90;;;;;;5092391;27;20047;-74
2022/03/30 08:55:49;;;;;;;5.47;2.60;;;9.80;99.90;;;;;;5099613;27;20047;-77
2022/03/30 08:58:16;;;;;;;7.37;3.10;;;9.90;99.90;;;;;;5109735;27;20053;-74
2022/03/30 09:00:43;;;;;;;6.40;2.77;;;9.90;99.90;;;;;;5103062;27;20510;-76
2022/03/30 09:03:09;;;;;;;4.53;3.20;;;9.90;99.90;;;;;;5112584;27;20134;-77
2022/03/30 09:05:37;;;;;;;7.07;2.77;;;9.80;99.90;;;;;;5105164;27;20118;-73
2022/03/30 09:08:12;;;;;;;3.97;2.60;;;9.70;99.90;;;;;;5113036;27;20050;-74
2022/03/30 09:10:38;;;;;;;4.23;2.90;;;9.70;99.90;;;;;;5100522;27;20560;-73
2022/03/30 09:13:06;;;;;;;3.93;3.10;;;9.90;99.90;;;;;;5106932;27;20039;-75
2022/03/30 09:15:34;;;;;;;4.87;1.80;;;10.00;99.90;;;;;;5082595;27;20381;-74
2022/03/30 09:18:04;;;;;;;3.73;1.50;;;10.10;99.90;;;;;;5103666;27;20352;-72
2022/03/30 09:20:31;;;;;;;6.17;1.60;;;10.30;99.90;;;;;;5092693;27;20398;-73
2022/03/30 09:22:59;;;;;;;4.87;1.20;;;10.30;99.90;;;;;;5104257;27;20424;-73
2022/03/30 09:25:26;;;;;;;4.73;1.17;;;10.50;99.90;;;;;;5115522;27;20099;-74
2022/03/30 09:27:54;;;;;;;4.93;1.57;;;10.50;99.90;;;;;;5085372;27;20047;-73
2022/03/30 09:30:21;;;;;;;3.50;1.20;;;10.60;99.90;;;;;;5107789;27;20393;-76
2022/03/30 09:32:52;;;;;;;4.10;1.20;;;10.70;99.90;;;;;;5111268;27;20134;-77
2022/03/30 09:35:24;;;;;;;4.57;1.30;;;10.80;99.90;;;;;;5107578;27;20047;-74
2022/03/30 09:38:08;;;;;;;6.07;1.30;;;10.90;99.90;;;;;;5109818;27;20362;-74
2022/03/30 09:40:41;;;;;;;6.65;1.52;;;10.90;99.90;;;;;;5101803;27;20420;-75
2022/03/30 09:43:25;;;;;;;5.67;0.93;;;10.80;99.90;;;;;;5106155;27;20050;-74
2022/03/30 09:46:04;;;;;;;4.57;1.27;;;10.60;99.90;;;;;;5101475;27;20057;-77
2022/03/30 09:48:32;;;;;;;5.47;1.50;;;10.40;99.90;;;;;;5094323;27;20057;-75
2022/03/30 09:51:02;;;;;;;10.00;1.40;;;10.10;99.90;;;;;;5110355;27;20062;-78
2022/03/30 09:53:30;;;;;;;5.60;1.50;;;10.00;99.90;;;;;;5114031;27;20039;-76
2022/03/30 09:55:59;;;;;;;4.33;1.47;;;9.90;99.90;;;;;;5094716;27;20051;-79
2022/03/30 09:58:26;;;;;;;4.10;1.30;;;9.90;99.90;;;;;;5110627;27;20123;-76
2022/03/30 10:01:06;;;;;;;3.90;1.20;;;9.90;99.90;;;;;;5105584;27;20428;-73
2022/03/30 10:03:48;;;;;;;7.90;1.50;;;9.90;99.90;;;;;;5119622;27;20091;-74
2022/03/30 10:06:16;;;;;;;4.13;1.30;;;9.80;99.90;;;;;;5106743;27;20053;-74
2022/03/30 10:08:44;;;;;;;4.43;1.17;;;9.90;99.90;;;;;;5096686;27;20087;-74
2022/03/30 10:11:10;;;;;;;4.23;1.40;;;9.90;99.90;;;;;;5103613;27;20039;-76
2022/03/30 10:13:36;;;;;;;5.27;1.27;;;10.10;99.90;;;;;;5105154;27;20434;-74
2022/03/30 10:16:04;;;;;;;4.10;1.30;;;10.20;99.90;;;;;;5100493;27;20060;-75
2022/03/30 10:18:32;;;;;;;6.17;1.27;;;10.20;99.90;;;;;;5115612;27;20102;-76
2022/03/30 10:21:17;;;;;;;2.73;1.20;;;10.50;99.90;;;;;;5113217;27;20327;-75
2022/03/30 10:24:15;;;;;;;4.47;1.37;;;10.90;99.90;;;;;;5110864;28;20051;-76
2022/03/30 10:26:49;;;;;;;4.77;1.30;;;11.30;99.90;;;;;;5110277;27;20126;-75
2022/03/30 10:29:17;;;;;;;4.43;1.10;;;11.40;99.90;;;;;;5091239;27;20054;-76
2022/03/30 10:32:13;;;;;;;6.63;1.53;;;11.50;99.90;;;;;;5112485;27;20043;-76
2022/03/30 10:34:50;;;;;;;3.30;1.27;;;11.70;99.90;;;;;;5105850;27;20119;-75
2022/03/30 10:37:25;;;;;;;4.40;1.40;;;12.00;99.90;;;;;;5099523;28;20046;-77
2022/03/30 10:39:55;;;;;;;5.90;1.47;;;12.00;99.90;;;;;;5120446;28;20055;-75
2022/03/30 10:42:21;;;;;;;4.63;1.50;;;11.90;99.90;;;;;;5104393;27;20055;-75
2022/03/30 10:44:49;;;;;;;4.20;1.20;;;11.90;99.90;;;;;;5115675;27;20063;-76
2022/03/30 10:47:17;;;;;;;7.33;1.57;;;12.00;99.40;;;;;;5112397;27;20051;-74
2022/03/30 10:49:46;;;;;;;4.77;1.23;;;11.90;97.80;;;;;;5109654;28;20044;-75
2022/03/30 10:52:40;;;;;;;4.50;1.37;;;11.90;98.00;;;;;;5114895;28;20043;-77
2022/03/30 10:55:30;;;;;;;4.47;1.30;;;11.80;98.20;;;;;;5091369;28;20112;-76
2022/03/30 10:57:58;;;;;;;3.47;0.90;;;11.70;98.30;;;;;;5123175;28;20111;-74
2022/03/30 11:00:26;;;;;;;5.00;1.23;;;11.80;97.80;;;;;;5117132;27;20047;-77
2022/03/30 11:03:04;;;;;;;3.63;0.97;;;11.50;97.20;;;;;;5121560;27;20042;-75
2022/03/30 11:05:30;;;;;;;4.27;1.07;;;11.40;97.70;;;;;;5107167;27;20051;-77
2022/03/30 11:07:57;;;;;;;4.90;1.10;;;11.20;98.20;;;;;;5117809;27;20035;-73
2022/03/30 11:10:29;;;;;;;5.37;1.20;;;11.10;98.40;;;;;;5110231;27;20048;-76
2022/03/30 11:13:06;;;;;;;5.13;1.13;;;11.00;99.00;;;;;;5115729;27;20112;-74
2022/03/30 11:16:07;;;;;;;8.30;1.30;;;11.00;99.30;;;;;;5112703;27;20565;-74
2022/03/30 11:18:35;;;;;;;7.03;1.20;;;10.90;99.30;;;;;;5111640;27;20484;-74
2022/03/30 11:21:18;;;;;;;3.40;1.17;;;10.80;99.40;;;;;;5096138;27;20035;-75
2022/03/30 11:24:01;;;;;;;4.82;1.23;;;10.80;98.50;;;;;;5111233;27;20051;-75
2022/03/30 11:27:20;;;;;;;5.13;1.23;;;10.80;99.20;;;;;;5118323;27;20051;-74
2022/03/30 11:29:55;;;;;;;5.73;1.10;;;10.90;99.40;;;;;;5112452;27;20063;-75
2022/03/30 11:33:01;;;;;;;3.87;1.00;;;10.90;99.30;;;;;;5120270;27;20051;-76
2022/03/30 11:35:33;;;;;;;4.80;1.30;;;11.00;98.70;;;;;;5108919;27;20058;-74
2022/03/30 11:38:22;;;;;;;4.17;1.17;;;11.10;98.70;;;;;;5096745;27;20046;-76
2022/03/30 11:40:51;;;;;;;5.53;1.47;;;11.10;97.20;;;;;;5115711;27;20103;-76
2022/03/30 11:43:19;;;;;;;3.70;1.27;;;11.20;97.90;;;;;;5112296;27;20166;-74
2022/03/30 11:45:46;;;;;;;3.70;1.17;;;11.30;97.80;;;;;;5115044;28;20035;-76
2022/03/30 11:48:13;;;;;;;4.27;1.40;;;11.30;97.70;;;;;;5100797;27;20050;-76
2022/03/30 11:50:41;;;;;;;3.87;1.40;;;11.30;96.60;;;;;;5111959;27;20042;-76
2022/03/30 11:53:08;;;;;;;5.00;1.63;;;11.30;96.90;;;;;;5118660;27;20043;-74
2022/03/30 11:55:38;;;;;;;6.83;1.20;;;11.30;96.10;;;;;;5132126;27;20064;-74
2022/03/30 11:58:05;;;;;;;3.40;1.10;;;11.30;96.90;;;;;;5110696;28;20043;-77
2022/03/30 12:00:32;;;;;;;3.93;1.10;;;11.30;96.20;;;;;;5117353;27;20099;-77
2022/03/30 12:03:01;;;;;;;4.63;1.07;;;11.10;94.70;;;;;;5120898;27;20043;-77
2022/03/30 12:05:27;;;;;;;5.03;1.50;;;11.00;94.00;;;;;;5105083;27;20044;-76
2022/03/30 12:07:56;;;;;;;5.90;1.40;;;11.00;94.20;;;;;;5117196;27;20069;-77
2022/03/30 12:10:27;;;;;;;4.07;1.20;;;11.00;95.20;;;;;;5122778;27;20047;-77
2022/03/30 12:12:53;;;;;;;5.67;1.30;;;10.80;95.30;;;;;;5118424;27;20047;-76
2022/03/30 12:15:19;;;;;;;5.23;1.10;;;10.70;95.60;;;;;;5127741;27;20055;-76
2022/03/30 12:17:50;;;;;;;3.80;1.00;;;10.60;96.20;;;;;;5137284;27;20552;-75
2022/03/30 12:20:23;;;;;;;5.83;1.00;;;10.50;96.60;;;;;;5120561;27;20052;-77
2022/03/30 12:22:58;;;;;;;3.35;1.00;;;10.30;96.60;;;;;;5121498;27;20112;-75
2022/03/30 12:25:25;;;;;;;4.37;0.97;;;10.10;96.40;;;;;;5116017;27;20055;-77
2022/03/30 12:27:50;;;;;;;2.63;1.00;;;9.90;96.90;;;;;;5107625;27;20050;-77
2022/03/30 12:30:16;;;;;;;3.73;1.10;;;9.80;97.00;;;;;;5115720;27;20031;-75
2022/03/30 12:32:42;;;;;;;3.13;0.90;;;9.70;97.00;;;;;;5100248;28;20044;-77
2022/03/30 12:35:11;;;;;;;3.60;1.20;;;9.60;97.00;;;;;;5118029;27;20046;-75
2022/03/30 12:37:38;;;;;;;7.30;1.27;;;9.50;97.20;;;;;;5116362;27;20051;-74
2022/03/30 12:40:10;;;;;;;4.37;1.10;;;9.50;97.50;;;;;;5116443;27;20059;-77
2022/03/30 12:42:37;;;;;;;4.33;1.37;;;9.60;97.90;;;;;;5100316;27;20057;-77
2022/03/30 12:45:08;;;;;;;5.97;1.20;;;9.60;96.90;;;;;;5111342;27;20077;-76
2022/03/30 12:47:38;;;;;;;5.63;1.07;;;9.60;97.60;;;;;;5099526;27;20057;-79
2022/03/30 12:50:06;;;;;;;5.50;1.30;;;9.60;97.10;;;;;;5102137;27;20051;-78
2022/03/30 12:52:36;;;;;;;4.63;1.00;;;9.70;97.70;;;;;;5102754;28;20055;-77
2022/03/30 12:55:16;;;;;;;5.40;1.27;;;9.70;98.20;;;;;;5107880;27;20039;-76
2022/03/30 12:57:51;;;;;;;3.83;1.00;;;9.70;97.20;;;;;;5116363;28;20039;-78